Time;durP1;ratioP1;P1;durP2;ratioP2;P2;SDS_P1;SDS_P2;PMS_P1;PMS_P2;Temp;Humidity;BMP_temperature;BMP_pressure;BME280_temperature;BME280_humidity;BME280_pressure;Samples;Min_cycle;Max_cycle;Signal;HPM_P1;HPM_P2
2022/04/04 00:01:00;;;;;;;11.07;8.13;;;2.90;91.00;;;;;;4931360;29;20266;-64
2022/04/04 00:03:27;;;;;;;10.43;8.70;;;2.80;99.90;;;;;;4942172;28;20290;-66
2022/04/04 00:05:54;;;;;;;11.77;9.03;;;2.80;99.90;;;;;;4942562;28;20200;-66
2022/04/04 00:08:21;;;;;;;11.70;8.20;;;2.80;99.90;;;;;;4923709;29;20211;-64
2022/04/04 00:10:48;;;;;;;10.83;8.57;;;2.80;99.90;;;;;;4929889;28;20270;-65
2022/04/04 00:13:15;;;;;;;11.63;8.50;;;2.70;99.90;;;;;;4944320;28;20218;-65
2022/04/04 00:15:43;;;;;;;14.57;7.93;;;2.70;99.90;;;;;;4926640;28;20203;-64
2022/04/04 00:18:13;;;;;;;9.70;8.13;;;2.70;99.90;;;;;;4925075;29;20203;-64
2022/04/04 00:20:41;;;;;;;11.80;8.07;;;2.70;99.90;;;;;;4942494;28;20618;-65
2022/04/04 00:23:12;;;;;;;14.97;8.87;;;2.70;99.90;;;;;;4944025;29;20199;-65
2022/04/04 00:25:44;;;;;;;12.30;8.47;;;2.70;99.90;;;;;;4926223;28;20204;-65
2022/04/04 00:28:13;;;;;;;9.60;8.20;;;2.60;99.90;;;;;;4940821;28;20259;-65
2022/04/04 00:30:41;;;;;;;11.63;8.20;;;2.60;99.90;;;;;;4942154;28;20705;-64
2022/04/04 00:33:08;;;;;;;9.60;8.40;;;2.60;99.90;;;;;;4942379;28;20216;-64
2022/04/04 00:35:36;;;;;;;10.80;8.93;;;2.60;99.90;;;;;;4926916;29;20207;-66
2022/04/04 00:38:04;;;;;;;9.53;8.57;;;2.60;99.90;;;;;;4933015;28;20328;-65
2022/04/04 00:40:31;;;;;;;11.27;8.53;;;2.60;99.90;;;;;;4924864;28;20202;-66
2022/04/04 00:42:59;;;;;;;12.87;9.17;;;2.50;99.90;;;;;;4938870;28;20282;-64
2022/04/04 00:45:26;;;;;;;10.73;8.40;;;2.50;99.90;;;;;;4926455;28;20203;-64
2022/04/04 00:47:53;;;;;;;14.47;9.63;;;2.50;99.90;;;;;;4926074;28;20207;-66
2022/04/04 00:50:22;;;;;;;9.93;8.17;;;2.50;99.90;;;;;;4945046;28;20206;-64
2022/04/04 00:52:51;;;;;;;10.10;8.97;;;2.50;99.90;;;;;;4927290;28;20195;-64
2022/04/04 00:55:19;;;;;;;11.97;9.40;;;2.50;99.90;;;;;;4926900;29;20262;-65
2022/04/04 00:57:47;;;;;;;12.50;8.50;;;2.50;99.90;;;;;;4913615;29;20253;-64
2022/04/04 01:00:14;;;;;;;10.00;8.33;;;2.50;99.90;;;;;;4933697;29;20203;-64
2022/04/04 01:02:41;;;;;;;11.20;8.80;;;2.40;99.90;;;;;;4926346;29;20230;-66
2022/04/04 01:05:10;;;;;;;12.53;8.40;;;2.40;99.90;;;;;;4927182;29;20617;-66
2022/04/04 01:07:38;;;;;;;14.30;10.80;;;2.50;99.90;;;;;;4930346;29;20209;-65
2022/04/04 01:10:08;;;;;;;11.83;7.87;;;2.40;99.90;;;;;;4944505;29;20219;-65
2022/04/04 01:12:36;;;;;;;10.00;8.03;;;2.40;99.90;;;;;;4925250;28;20287;-64
2022/04/04 01:15:04;;;;;;;11.27;8.20;;;2.40;99.90;;;;;;4941329;28;20710;-65
2022/04/04 01:17:31;;;;;;;11.50;8.17;;;2.40;99.90;;;;;;4926448;29;20923;-64
2022/04/04 01:19:58;;;;;;;11.93;8.37;;;2.40;99.90;;;;;;4926758;28;20258;-64
2022/04/04 01:22:25;;;;;;;8.80;7.87;;;2.40;99.90;;;;;;4935837;28;20233;-65
2022/04/04 01:24:52;;;;;;;10.10;7.77;;;2.40;99.90;;;;;;4926990;28;20211;-64
2022/04/04 01:27:20;;;;;;;9.93;7.93;;;2.40;99.90;;;;;;4930400;29;20199;-65
2022/04/04 01:29:47;;;;;;;12.23;7.90;;;2.40;99.90;;;;;;4943025;29;20225;-64
2022/04/04 01:32:14;;;;;;;14.23;8.47;;;2.40;99.90;;;;;;4941239;28;20625;-65
2022/04/04 01:34:41;;;;;;;14.17;7.93;;;2.30;99.90;;;;;;4908665;28;20246;-65
2022/04/04 01:37:08;;;;;;;13.20;8.40;;;2.40;99.90;;;;;;4939678;29;20215;-64
2022/04/04 01:39:35;;;;;;;10.83;8.43;;;2.40;99.90;;;;;;4940114;28;20195;-64
2022/04/04 01:42:03;;;;;;;9.13;7.97;;;2.40;99.90;;;;;;4938057;28;20619;-65
2022/04/04 01:44:30;;;;;;;8.93;7.67;;;2.50;99.90;;;;;;4924726;29;20199;-64
2022/04/04 01:46:58;;;;;;;14.13;8.83;;;2.50;93.60;;;;;;4925418;29;20226;-64
2022/04/04 01:49:27;;;;;;;10.90;8.27;;;2.60;44.20;;;;;;4918911;28;20199;-65
2022/04/04 01:51:54;;;;;;;10.07;8.33;;;2.60;16.90;;;;;;4942481;28;20204;-65
2022/04/04 01:54:21;;;;;;;10.37;8.07;;;2.70;1.00;;;;;;4942873;28;20207;-63
2022/04/04 01:56:49;;;;;;;10.60;8.10;;;2.60;1.00;;;;;;4940593;28;20196;-64
2022/04/04 01:59:16;;;;;;;9.77;7.87;;;2.60;1.00;;;;;;4927750;29;20199;-64
2022/04/04 02:01:44;;;;;;;11.10;8.30;;;2.60;2.30;;;;;;4942395;28;20263;-65
2022/04/04 02:04:11;;;;;;;13.27;8.67;;;2.50;38.20;;;;;;4938065;28;20606;-64
2022/04/04 02:06:39;;;;;;;10.47;8.27;;;2.50;44.60;;;;;;4936825;28;20313;-64
2022/04/04 02:09:07;;;;;;;10.97;8.47;;;2.50;59.30;;;;;;4923728;28;20207;-63
2022/04/04 02:11:34;;;;;;;10.37;8.20;;;2.40;95.90;;;;;;4923768;29;20298;-64
2022/04/04 02:14:02;;;;;;;11.97;9.43;;;2.40;99.90;;;;;;4941879;28;20254;-64
2022/04/04 02:16:29;;;;;;;12.37;9.63;;;2.50;99.90;;;;;;4938266;28;20247;-64
2022/04/04 02:18:56;;;;;;;11.90;9.50;;;2.50;61.10;;;;;;4942357;28;20774;-64
2022/04/04 02:21:23;;;;;;;11.57;9.30;;;2.50;42.40;;;;;;4922145;29;20234;-64
2022/04/04 02:23:51;;;;;;;12.07;9.87;;;2.50;96.10;;;;;;4918026;28;20897;-64
2022/04/04 02:26:19;;;;;;;11.90;9.73;;;2.40;99.90;;;;;;4932479;28;20214;-65
2022/04/04 02:28:46;;;;;;;13.63;9.33;;;2.50;99.90;;;;;;4937621;28;20203;-65
2022/04/04 02:31:13;;;;;;;13.40;10.13;;;2.40;99.90;;;;;;4940615;28;20279;-66
2022/04/04 02:33:40;;;;;;;12.80;9.87;;;2.50;99.90;;;;;;4923397;28;20229;-65
2022/04/04 02:36:08;;;;;;;15.83;10.67;;;2.40;99.90;;;;;;4936891;28;20649;-65
2022/04/04 02:38:35;;;;;;;16.37;9.63;;;2.40;99.90;;;;;;4925419;29;20200;-66
2022/04/04 02:41:02;;;;;;;12.27;10.60;;;2.40;99.90;;;;;;4923061;28;20199;-65
2022/04/04 02:43:29;;;;;;;13.17;9.33;;;2.40;99.90;;;;;;4923548;29;20203;-66
2022/04/04 02:45:58;;;;;;;14.53;10.73;;;2.40;99.90;;;;;;4941636;28;20240;-65
2022/04/04 02:48:25;;;;;;;10.70;9.53;;;2.40;99.90;;;;;;4929757;29;21108;-65
2022/04/04 02:50:53;;;;;;;12.20;9.67;;;2.40;99.90;;;;;;4925692;28;20254;-65
2022/04/04 02:53:20;;;;;;;11.10;8.93;;;2.40;99.90;;;;;;4924141;29;20195;-65
2022/04/04 02:58:35;;;;;;;11.57;10.00;;;2.40;99.90;;;;;;4945513;28;20290;-66
2022/04/04 03:01:03;;;;;;;15.97;10.27;;;2.40;99.90;;;;;;4927243;28;20183;-66
2022/04/04 03:03:31;;;;;;;12.53;9.70;;;2.40;99.90;;;;;;4926463;29;20196;-66
2022/04/04 03:05:57;;;;;;;14.33;10.40;;;2.40;99.90;;;;;;4943647;28;20203;-67
2022/04/04 03:08:24;;;;;;;11.73;10.23;;;2.40;99.90;;;;;;4925038;28;20202;-66
2022/04/04 03:10:52;;;;;;;13.90;9.90;;;2.40;99.90;;;;;;4944880;28;20265;-66
2022/04/04 03:13:19;;;;;;;14.30;10.27;;;2.40;99.90;;;;;;4946418;28;20613;-65
2022/04/04 03:15:46;;;;;;;13.43;10.30;;;2.50;99.90;;;;;;4940473;29;20242;-66
2022/04/04 03:18:13;;;;;;;12.80;9.70;;;2.50;99.90;;;;;;4935685;29;20223;-66
2022/04/04 03:20:40;;;;;;;13.77;10.23;;;2.60;99.90;;;;;;4938969;28;20309;-65
2022/04/04 03:23:07;;;;;;;12.97;10.10;;;2.60;99.90;;;;;;4922743;28;20203;-66
2022/04/04 03:25:34;;;;;;;10.53;9.47;;;2.60;99.90;;;;;;4924056;28;20234;-65
2022/04/04 03:28:01;;;;;;;15.83;9.20;;;2.60;99.90;;;;;;4933102;29;20203;-65
2022/04/04 03:30:29;;;;;;;11.73;8.53;;;2.60;99.90;;;;;;4926438;29;20198;-66
2022/04/04 03:32:59;;;;;;;13.97;9.37;;;2.60;99.90;;;;;;4942312;28;20227;-65
2022/04/04 03:35:28;;;;;;;15.60;9.77;;;2.50;99.90;;;;;;4924452;29;20203;-66
2022/04/04 03:37:58;;;;;;;14.70;10.40;;;2.50;99.90;;;;;;4922166;28;20258;-65
2022/04/04 03:40:25;;;;;;;12.80;9.20;;;2.50;99.90;;;;;;4922485;29;20234;-66
2022/04/04 03:42:55;;;;;;;11.17;8.77;;;2.50;67.50;;;;;;4925818;28;20558;-65
2022/04/04 03:45:24;;;;;;;11.83;9.03;;;2.60;55.60;;;;;;4942676;28;20249;-65
2022/04/04 03:47:51;;;;;;;10.57;8.63;;;2.70;1.00;;;;;;4938321;28;20203;-66
2022/04/04 03:50:19;;;;;;;11.07;9.03;;;2.70;1.00;;;;;;4909226;28;20295;-64
2022/04/04 03:52:48;;;;;;;13.50;9.97;;;2.70;1.00;;;;;;4917428;29;20285;-65
2022/04/04 03:55:16;;;;;;;14.67;8.80;;;2.70;1.00;;;;;;4912127;29;20258;-65
2022/04/04 03:57:44;;;;;;;14.50;9.80;;;2.70;1.00;;;;;;4921532;28;20194;-65
2022/04/04 04:00:12;;;;;;;15.93;10.17;;;2.70;1.00;;;;;;4895211;28;20734;-66
2022/04/04 04:02:39;;;;;;;11.00;8.70;;;2.60;1.00;;;;;;4942607;28;20195;-65
2022/04/04 04:05:11;;;;;;;11.97;10.10;;;2.60;1.00;;;;;;4923977;29;20319;-65
2022/04/04 04:07:39;;;;;;;12.10;10.23;;;2.60;1.00;;;;;;4922602;29;20278;-66
2022/04/04 04:10:06;;;;;;;13.43;10.37;;;2.60;4.00;;;;;;4923157;29;20220;-65
2022/04/04 04:12:33;;;;;;;14.00;10.67;;;2.60;1.00;;;;;;4925886;29;20341;-65
2022/04/04 04:15:01;;;;;;;14.77;10.27;;;2.60;5.30;;;;;;4924909;28;20299;-65
2022/04/04 04:17:28;;;;;;;20.93;11.37;;;2.60;1.00;;;;;;4921092;28;20235;-65
2022/04/04 04:22:40;;;;;;;14.13;11.00;;;2.60;1.00;;;;;;4939131;28;20222;-68
2022/04/04 04:25:11;;;;;;;17.50;11.37;;;2.60;1.00;;;;;;4925928;29;20239;-66
2022/04/04 04:27:38;;;;;;;15.13;10.80;;;2.60;1.00;;;;;;4924589;28;20220;-67
2022/04/04 04:30:06;;;;;;;15.13;10.90;;;2.60;1.00;;;;;;4936504;28;20666;-65
2022/04/04 04:32:33;;;;;;;16.67;11.03;;;2.70;1.00;;;;;;4940633;28;20333;-67
2022/04/04 04:35:00;;;;;;;14.83;11.30;;;2.70;1.00;;;;;;4921988;29;20290;-65
2022/04/04 04:37:27;;;;;;;14.93;10.93;;;2.70;1.00;;;;;;4919629;28;20253;-66
2022/04/04 04:39:54;;;;;;;18.80;11.30;;;2.70;1.00;;;;;;4939108;28;20631;-64
2022/04/04 04:42:21;;;;;;;16.37;10.20;;;2.70;1.00;;;;;;4940769;28;20226;-65
2022/04/04 04:44:48;;;;;;;17.37;10.47;;;2.70;1.00;;;;;;4924510;29;20628;-65
2022/04/04 04:47:17;;;;;;;14.97;10.10;;;2.70;1.00;;;;;;4923227;29;20617;-64
2022/04/04 04:49:45;;;;;;;14.73;9.67;;;2.80;1.00;;;;;;4941650;28;20874;-65
2022/04/04 04:52:12;;;;;;;13.43;9.47;;;2.80;1.00;;;;;;4925200;28;20281;-65
2022/04/04 04:54:39;;;;;;;14.00;9.33;;;2.80;1.00;;;;;;4926813;29;20808;-65
2022/04/04 04:57:06;;;;;;;11.87;9.17;;;2.80;1.00;;;;;;4939359;28;20202;-65
2022/04/04 04:59:33;;;;;;;11.73;9.37;;;2.80;1.00;;;;;;4926292;29;20206;-65
2022/04/04 05:02:00;;;;;;;13.43;9.20;;;2.70;1.00;;;;;;4928221;28;20203;-66
2022/04/04 05:04:27;;;;;;;11.47;9.10;;;2.80;1.00;;;;;;4919858;29;20310;-64
2022/04/04 05:06:54;;;;;;;11.43;8.50;;;2.80;1.00;;;;;;4923685;28;20235;-65
2022/04/04 05:09:22;;;;;;;10.17;8.17;;;2.80;1.00;;;;;;4922484;28;20205;-65
2022/04/04 05:11:49;;;;;;;12.07;8.23;;;2.90;1.00;;;;;;4923880;29;20246;-65
2022/04/04 05:14:16;;;;;;;13.30;8.17;;;3.00;99.90;;;;;;4941778;28;20208;-65
2022/04/04 05:16:45;;;;;;;9.97;7.47;;;3.10;99.90;;;;;;4940507;28;20244;-66
2022/04/04 05:19:14;;;;;;;13.13;7.60;;;3.10;99.90;;;;;;4940407;28;20202;-65
2022/04/04 05:21:41;;;;;;;11.50;7.47;;;3.20;99.90;;;;;;4922268;29;20293;-64
2022/04/04 05:24:08;;;;;;;11.03;7.40;;;3.20;99.90;;;;;;4922417;29;20209;-65
2022/04/04 05:26:36;;;;;;;9.93;7.07;;;3.30;99.90;;;;;;4923601;29;20678;-65
2022/04/04 05:29:04;;;;;;;10.33;7.93;;;3.30;99.90;;;;;;4925175;29;20207;-65
2022/04/04 05:31:32;;;;;;;8.97;7.10;;;3.30;99.90;;;;;;4939224;28;20732;-65
2022/04/04 05:34:01;;;;;;;10.80;7.13;;;3.40;99.90;;;;;;4924561;28;20203;-66
2022/04/04 05:36:28;;;;;;;9.63;7.13;;;3.40;99.90;;;;;;4938924;28;20223;-65
2022/04/04 05:38:55;;;;;;;8.50;7.00;;;3.50;97.10;;;;;;4926342;29;20216;-64
2022/04/04 05:41:22;;;;;;;8.60;7.43;;;3.50;92.10;;;;;;4937907;28;20304;-65
2022/04/04 05:43:49;;;;;;;11.30;8.30;;;3.50;82.10;;;;;;4929849;28;20215;-66
2022/04/04 05:46:20;;;;;;;9.13;7.13;;;3.60;54.20;;;;;;4938483;28;20203;-65
2022/04/04 05:48:48;;;;;;;11.00;7.87;;;3.60;20.20;;;;;;4939079;28;20200;-64
2022/04/04 05:51:16;;;;;;;10.27;7.87;;;3.60;8.50;;;;;;4922107;29;20770;-64
2022/04/04 05:53:44;;;;;;;9.67;8.10;;;3.60;8.20;;;;;;4922943;29;20214;-65
2022/04/04 05:56:11;;;;;;;10.87;8.57;;;3.60;47.90;;;;;;4921165;29;20246;-65
2022/04/04 05:58:38;;;;;;;11.90;7.57;;;3.70;1.00;;;;;;4925518;28;20262;-65
2022/04/04 06:01:05;;;;;;;10.57;7.90;;;3.80;1.00;;;;;;4935562;28;20220;-65
2022/04/04 06:03:35;;;;;;;11.83;7.70;;;3.80;1.00;;;;;;4920562;28;20210;-65
2022/04/04 06:06:04;;;;;;;10.73;7.93;;;3.80;1.00;;;;;;4912804;28;20356;-65
2022/04/04 06:08:31;;;;;;;9.60;8.17;;;3.80;1.00;;;;;;4937564;29;20230;-65
2022/04/04 06:10:58;;;;;;;12.17;8.63;;;3.90;1.00;;;;;;4929122;29;20622;-65
2022/04/04 06:13:25;;;;;;;14.27;8.23;;;4.00;1.00;;;;;;4927358;29;20482;-65
2022/04/04 06:15:53;;;;;;;12.03;7.73;;;4.10;1.00;;;;;;4935115;28;20239;-65
2022/04/04 06:18:20;;;;;;;13.83;8.13;;;4.20;1.00;;;;;;4939993;28;20223;-65
2022/04/04 06:20:47;;;;;;;10.00;7.70;;;4.40;1.00;;;;;;4917811;29;20679;-65
2022/04/04 06:23:14;;;;;;;10.83;8.67;;;4.70;1.00;;;;;;4940279;29;20314;-64
2022/04/04 06:25:48;;;;;;;10.50;7.83;;;4.80;1.00;;;;;;4938293;28;20761;-65
2022/04/04 06:28:16;;;;;;;11.80;8.10;;;4.80;1.00;;;;;;4940069;28;20234;-66
2022/04/04 06:30:43;;;;;;;8.73;7.60;;;4.70;1.00;;;;;;4921529;28;20206;-65
2022/04/04 06:33:11;;;;;;;10.43;7.83;;;4.70;1.00;;;;;;4926556;29;20539;-66
2022/04/04 06:35:38;;;;;;;14.07;7.93;;;4.70;1.00;;;;;;4923874;28;20230;-65
2022/04/04 06:38:05;;;;;;;11.37;7.50;;;4.60;1.00;;;;;;4941831;28;20290;-65
2022/04/04 06:40:35;;;;;;;9.77;7.10;;;4.60;1.00;;;;;;4942362;28;20226;-66
2022/04/04 06:43:02;;;;;;;10.73;7.70;;;4.70;1.00;;;;;;4944896;28;20880;-65
2022/04/04 06:45:29;;;;;;;10.93;8.00;;;4.70;1.00;;;;;;4925486;29;20282;-64
2022/04/04 06:47:56;;;;;;;12.43;7.80;;;4.70;1.00;;;;;;4925987;29;20203;-64
2022/04/04 06:50:24;;;;;;;11.47;7.17;;;4.70;1.00;;;;;;4923464;28;20269;-64
2022/04/04 06:52:52;;;;;;;10.33;6.80;;;4.70;1.00;;;;;;4926517;29;20207;-65
2022/04/04 06:55:39;;;;;;;18.23;7.47;;;4.60;1.00;;;;;;4926046;29;20213;-64
2022/04/04 06:58:07;;;;;;;12.73;8.00;;;4.70;1.00;;;;;;4942137;28;20222;-65
2022/04/04 07:00:34;;;;;;;11.87;7.33;;;4.80;1.00;;;;;;4923186;28;21105;-64
2022/04/04 07:03:02;;;;;;;11.00;6.63;;;4.80;1.00;;;;;;4925686;29;20198;-66
2022/04/04 07:05:29;;;;;;;11.53;7.13;;;4.80;1.00;;;;;;4933658;28;20191;-64
2022/04/04 07:07:56;;;;;;;13.90;7.57;;;4.80;1.00;;;;;;4920166;29;20194;-64
2022/04/04 07:10:23;;;;;;;10.37;6.97;;;4.90;1.00;;;;;;4926990;29;20637;-64
2022/04/04 07:12:50;;;;;;;11.30;7.10;;;4.90;99.90;;;;;;4926885;28;20661;-65
2022/04/04 07:15:17;;;;;;;10.17;6.67;;;4.90;99.90;;;;;;4908921;29;20404;-64
2022/04/04 07:17:45;;;;;;;10.43;6.37;;;5.00;99.90;;;;;;4925460;29;20610;-64
2022/04/04 07:20:12;;;;;;;9.20;6.27;;;5.10;99.90;;;;;;4942219;28;20199;-64
2022/04/04 07:22:42;;;;;;;8.30;6.13;;;5.30;99.90;;;;;;4942383;28;20206;-65
2022/04/04 07:25:12;;;;;;;9.87;6.17;;;5.60;99.90;;;;;;4925261;29;20793;-64
2022/04/04 07:27:45;;;;;;;11.53;5.73;;;6.00;99.90;;;;;;4926435;29;20195;-64
2022/04/04 07:30:17;;;;;;;8.80;6.30;;;6.30;2.90;;;;;;4943212;28;20349;-65
2022/04/04 07:32:49;;;;;;;10.97;5.70;;;6.40;1.00;;;;;;4944204;28;20198;-65
2022/04/04 07:35:18;;;;;;;7.67;5.47;;;6.70;1.00;;;;;;4943108;29;20215;-66
2022/04/04 07:37:47;;;;;;;13.07;4.90;;;7.30;1.00;;;;;;4941313;28;21164;-65
2022/04/04 07:40:16;;;;;;;5.77;4.70;;;7.40;1.00;;;;;;4939837;28;20667;-65
2022/04/04 07:42:44;;;;;;;7.90;5.00;;;7.70;1.00;;;;;;4938852;28;20250;-65
2022/04/04 07:45:13;;;;;;;9.00;5.33;;;8.20;1.00;;;;;;4942078;28;20194;-65
2022/04/04 07:47:40;;;;;;;6.23;4.17;;;8.40;1.00;;;;;;4941231;28;20200;-65
2022/04/04 07:50:10;;;;;;;6.60;5.20;;;8.40;1.00;;;;;;4922710;28;20667;-66
2022/04/04 07:52:37;;;;;;;7.60;5.33;;;8.70;1.00;;;;;;4914648;29;20638;-65
2022/04/04 07:55:09;;;;;;;8.60;4.90;;;8.40;1.00;;;;;;4939570;28;20377;-65
2022/04/04 07:57:37;;;;;;;7.43;5.47;;;8.50;1.00;;;;;;4923565;29;21171;-65
2022/04/04 08:00:05;;;;;;;6.33;5.07;;;8.80;1.00;;;;;;4904483;29;20203;-65
2022/04/04 08:02:32;;;;;;;8.60;5.40;;;8.70;1.00;;;;;;4940093;28;20255;-65
2022/04/04 08:05:00;;;;;;;9.67;5.97;;;8.90;1.00;;;;;;4923391;29;20199;-65
2022/04/04 08:07:29;;;;;;;11.93;6.13;;;9.00;1.00;;;;;;4917951;29;20352;-66
2022/04/04 08:09:56;;;;;;;7.97;6.33;;;9.10;1.00;;;;;;4937756;28;20330;-65
2022/04/04 08:12:27;;;;;;;8.00;6.27;;;8.90;1.00;;;;;;4908248;29;20742;-66
2022/04/04 08:14:55;;;;;;;12.27;6.20;;;9.20;1.00;;;;;;4940494;28;20584;-66
2022/04/04 08:17:24;;;;;;;9.50;7.20;;;8.70;1.00;;;;;;4931998;28;21239;-65
2022/04/04 08:19:50;;;;;;;7.80;5.70;;;8.70;1.00;;;;;;4924371;29;20198;-65
2022/04/04 08:22:18;;;;;;;9.97;6.27;;;8.30;1.00;;;;;;4940258;28;20199;-65
2022/04/04 08:24:45;;;;;;;9.13;6.53;;;8.40;1.00;;;;;;4941698;28;20230;-65
2022/04/04 08:27:12;;;;;;;11.03;6.00;;;8.10;1.00;;;;;;4921750;29;20201;-65
2022/04/04 08:29:40;;;;;;;9.30;6.03;;;8.10;1.00;;;;;;4924991;28;20206;-65
2022/04/04 08:32:08;;;;;;;9.07;5.97;;;7.90;1.00;;;;;;4936000;28;20250;-65
2022/04/04 08:34:36;;;;;;;9.73;6.00;;;7.60;1.00;;;;;;4928421;28;20302;-64
2022/04/04 08:37:03;;;;;;;9.30;5.70;;;7.50;1.00;;;;;;4923504;28;20287;-65
2022/04/04 08:39:33;;;;;;;7.63;5.97;;;7.50;1.00;;;;;;4920931;29;20552;-65
2022/04/04 08:42:02;;;;;;;8.77;5.73;;;7.90;1.00;;;;;;4929937;29;20203;-65
2022/04/04 08:44:29;;;;;;;7.73;5.33;;;8.20;1.00;;;;;;4923432;28;20631;-64
2022/04/04 08:46:57;;;;;;;8.50;5.33;;;8.20;1.00;;;;;;4924079;28;20638;-64
2022/04/04 08:49:24;;;;;;;10.17;5.87;;;8.30;1.00;;;;;;4930584;28;20238;-64
2022/04/04 08:51:52;;;;;;;14.23;6.17;;;8.00;1.00;;;;;;4939847;28;20199;-64
2022/04/04 08:54:19;;;;;;;8.23;6.17;;;8.10;1.00;;;;;;4924383;29;20270;-64
2022/04/04 08:56:48;;;;;;;8.53;5.43;;;7.70;1.00;;;;;;4940220;28;20223;-65
2022/04/04 08:59:15;;;;;;;11.83;5.57;;;7.90;1.00;;;;;;4940811;28;20235;-65
2022/04/04 09:01:42;;;;;;;9.43;6.17;;;7.90;1.00;;;;;;4936510;28;20195;-64
2022/04/04 09:04:09;;;;;;;8.03;5.33;;;8.00;1.00;;;;;;4923501;29;20211;-65
2022/04/04 09:07:07;;;;;;;8.90;5.43;;;8.30;1.00;;;;;;4928900;28;20294;-65
2022/04/04 09:09:49;;;;;;;7.47;6.00;;;8.20;1.00;;;;;;4922439;28;20211;-64
2022/04/04 09:12:20;;;;;;;13.53;8.13;;;8.10;1.00;;;;;;4938301;28;20277;-64
2022/04/04 09:14:54;;;;;;;9.40;6.67;;;8.00;1.00;;;;;;4941139;28;20695;-64
2022/04/04 09:17:24;;;;;;;8.80;5.13;;;8.30;1.00;;;;;;4933265;28;20269;-65
2022/04/04 09:19:51;;;;;;;6.93;5.03;;;8.20;1.00;;;;;;4939953;28;20225;-64
2022/04/04 09:22:20;;;;;;;8.10;5.57;;;8.00;1.00;;;;;;4938051;28;20247;-64
2022/04/04 09:25:02;;;;;;;8.30;5.80;;;7.90;1.00;;;;;;4940422;28;20279;-64
2022/04/04 09:27:30;;;;;;;9.20;5.73;;;8.10;1.00;;;;;;4923332;29;20187;-65
2022/04/04 09:30:06;;;;;;;7.37;4.90;;;8.20;1.00;;;;;;4941746;28;20198;-64
2022/04/04 09:32:42;;;;;;;11.10;5.27;;;8.00;1.00;;;;;;4918497;28;20228;-64
2022/04/04 09:35:14;;;;;;;6.17;4.87;;;8.00;1.00;;;;;;4921851;28;20305;-64
2022/04/04 09:37:51;;;;;;;6.70;4.93;;;8.00;1.00;;;;;;4937393;28;20196;-64
2022/04/04 09:40:24;;;;;;;10.53;5.10;;;7.90;1.00;;;;;;4918258;29;20273;-64
2022/04/04 09:42:51;;;;;;;9.70;5.00;;;8.10;1.00;;;;;;4936755;28;20199;-65
2022/04/04 09:45:22;;;;;;;7.93;4.60;;;8.20;1.00;;;;;;4920103;28;20306;-64
2022/04/04 09:47:59;;;;;;;6.13;5.33;;;8.00;1.00;;;;;;4924226;28;20200;-64
2022/04/04 09:50:45;;;;;;;6.30;4.50;;;8.00;1.00;;;;;;4927358;28;20845;-65
2022/04/04 09:53:17;;;;;;;6.03;4.33;;;8.10;1.00;;;;;;4936677;28;20706;-64
2022/04/04 09:55:56;;;;;;;6.47;5.17;;;7.80;1.00;;;;;;4938872;28;20224;-64
2022/04/04 09:58:29;;;;;;;5.87;4.70;;;7.80;1.00;;;;;;4937282;28;20686;-65
2022/04/04 10:00:58;;;;;;;6.60;5.90;;;7.90;1.00;;;;;;4936072;28;20231;-65
2022/04/04 10:03:28;;;;;;;6.83;4.93;;;8.10;1.00;;;;;;4916623;28;20196;-64
2022/04/04 10:05:59;;;;;;;10.27;5.50;;;8.10;1.00;;;;;;4920033;28;20283;-64
2022/04/04 10:08:27;;;;;;;6.30;5.03;;;8.00;1.00;;;;;;4934515;28;20620;-64
2022/04/04 10:10:55;;;;;;;6.53;5.17;;;7.70;1.00;;;;;;4919240;28;20222;-64
2022/04/04 10:13:23;;;;;;;7.20;5.43;;;7.50;1.00;;;;;;4919754;28;20203;-64
2022/04/04 10:15:52;;;;;;;9.30;4.83;;;7.50;4.30;;;;;;4938429;28;20934;-64
2022/04/04 10:18:21;;;;;;;6.77;5.40;;;7.40;13.90;;;;;;4938181;28;20187;-64
2022/04/04 10:20:56;;;;;;;6.67;4.73;;;7.40;81.80;;;;;;4939619;28;20242;-64
2022/04/04 10:23:26;;;;;;;7.87;4.50;;;7.40;99.90;;;;;;4907570;29;20202;-65
2022/04/04 10:25:54;;;;;;;8.60;5.50;;;7.50;99.90;;;;;;4923101;29;20217;-65
2022/04/04 10:28:33;;;;;;;7.80;5.20;;;7.60;99.90;;;;;;4923010;29;20303;-65
2022/04/04 10:31:10;;;;;;;6.53;4.97;;;7.70;99.90;;;;;;4921319;29;20199;-64
2022/04/04 10:33:37;;;;;;;9.63;6.00;;;7.70;99.90;;;;;;4921039;28;20209;-64
2022/04/04 10:36:20;;;;;;;12.50;5.83;;;7.50;99.90;;;;;;4926154;28;20263;-64
2022/04/04 10:38:55;;;;;;;8.37;6.00;;;7.60;99.90;;;;;;4936896;28;20203;-64
2022/04/04 10:41:27;;;;;;;10.20;5.73;;;7.80;99.90;;;;;;4928329;28;20282;-66
2022/04/04 10:43:55;;;;;;;11.90;5.97;;;7.80;99.90;;;;;;4937986;28;20195;-65
2022/04/04 10:46:24;;;;;;;7.37;6.07;;;7.70;99.90;;;;;;4939388;28;20203;-64
2022/04/04 10:49:00;;;;;;;8.77;5.63;;;7.60;1.00;;;;;;4939824;28;20195;-63
2022/04/04 10:51:34;;;;;;;9.03;7.10;;;7.30;1.00;;;;;;4911086;29;20250;-64
2022/04/04 10:54:03;;;;;;;7.70;5.60;;;7.40;1.00;;;;;;4928031;28;20214;-63
2022/04/04 10:56:33;;;;;;;10.40;6.20;;;7.20;1.00;;;;;;4940854;28;20211;-64
2022/04/04 10:59:15;;;;;;;8.43;6.40;;;7.10;1.00;;;;;;4930289;29;20205;-64
2022/04/04 11:01:45;;;;;;;9.60;6.33;;;6.90;1.00;;;;;;4939048;28;20640;-64
2022/04/04 11:07:41;;;;;;;10.03;6.50;;;7.00;1.00;;;;;;4934276;28;20224;-64
2022/04/04 11:10:09;;;;;;;10.70;7.00;;;6.90;52.30;;;;;;4939054;28;20214;-65
2022/04/04 11:12:56;;;;;;;9.07;7.47;;;6.50;99.90;;;;;;4920367;28;20218;-65
2022/04/04 11:15:44;;;;;;;11.20;7.73;;;6.40;99.90;;;;;;4940718;28;20210;-65
2022/04/04 11:18:13;;;;;;;13.20;7.63;;;6.30;1.00;;;;;;4901738;29;20661;-65
2022/04/04 11:20:53;;;;;;;10.43;7.70;;;6.20;1.00;;;;;;4901971;29;20200;-65
2022/04/04 11:23:25;;;;;;;12.57;8.30;;;6.00;1.00;;;;;;4900844;29;20644;-65
2022/04/04 11:25:53;;;;;;;11.53;8.87;;;5.90;1.00;;;;;;4899951;29;20732;-64
2022/04/04 11:28:25;;;;;;;9.97;8.47;;;5.80;1.00;;;;;;4901365;29;20216;-66
2022/04/04 11:30:53;;;;;;;10.13;8.30;;;6.00;15.40;;;;;;4887459;29;20702;-66
2022/04/04 11:33:26;;;;;;;11.80;8.57;;;5.90;13.10;;;;;;4902886;29;20200;-65
2022/04/04 11:35:54;;;;;;;13.87;8.23;;;5.70;1.00;;;;;;4902734;29;20193;-66
2022/04/04 11:38:22;;;;;;;13.30;8.03;;;5.70;99.90;;;;;;4908469;29;20351;-66
2022/04/04 11:40:55;;;;;;;11.90;8.77;;;5.60;99.90;;;;;;4902048;29;20688;-66
2022/04/04 11:43:24;;;;;;;12.23;8.00;;;5.70;99.90;;;;;;4901126;29;20857;-65
2022/04/04 11:45:53;;;;;;;12.27;9.43;;;5.70;99.90;;;;;;4903556;29;20625;-65
2022/04/04 11:48:24;;;;;;;11.37;8.33;;;5.70;99.90;;;;;;4917348;29;20865;-64
2022/04/04 11:50:56;;;;;;;12.00;8.50;;;5.60;99.90;;;;;;4902143;29;20189;-65
2022/04/04 11:53:26;;;;;;;11.90;8.70;;;5.70;99.90;;;;;;4887295;29;20630;-65
2022/04/04 11:56:03;;;;;;;11.77;9.07;;;5.70;1.00;;;;;;4897901;29;20209;-66
2022/04/04 11:58:35;;;;;;;15.87;9.17;;;5.60;99.90;;;;;;4900412;29;20647;-64
2022/04/04 12:01:04;;;;;;;12.77;9.27;;;5.50;1.00;;;;;;4905199;29;20224;-64
2022/04/04 12:03:33;;;;;;;10.67;9.23;;;5.50;1.00;;;;;;4902742;29;20193;-64
2022/04/04 12:06:06;;;;;;;14.10;9.70;;;5.50;1.00;;;;;;4900581;29;20193;-63
2022/04/04 12:08:35;;;;;;;13.47;9.47;;;5.60;1.00;;;;;;4902897;29;20204;-64
2022/04/04 12:11:05;;;;;;;9.90;8.90;;;5.70;1.00;;;;;;4902632;29;20224;-63
2022/04/04 12:13:32;;;;;;;12.57;9.23;;;5.60;99.90;;;;;;4899245;29;20208;-65
2022/04/04 12:15:59;;;;;;;11.57;8.47;;;5.70;1.00;;;;;;4899154;29;20271;-64
2022/04/04 12:18:29;;;;;;;9.37;8.47;;;5.80;99.90;;;;;;4908382;29;20204;-65
2022/04/04 12:20:58;;;;;;;10.10;8.57;;;5.80;99.90;;;;;;4898122;29;20207;-66
2022/04/04 12:26:16;;;;;;;12.30;8.57;;;5.90;1.00;;;;;;4901525;29;20201;-65
2022/04/04 12:28:49;;;;;;;12.97;10.97;;;5.90;1.00;;;;;;4900271;29;20193;-66
2022/04/04 12:31:19;;;;;;;13.00;9.63;;;5.70;1.00;;;;;;4898385;29;20699;-65
2022/04/04 12:34:09;;;;;;;10.70;8.37;;;5.80;1.00;;;;;;4896131;29;20228;-66
2022/04/04 12:36:41;;;;;;;10.63;9.10;;;5.50;1.00;;;;;;4901853;29;20695;-65
2022/04/04 12:39:19;;;;;;;9.93;8.90;;;5.50;99.90;;;;;;4899406;29;20204;-66
2022/04/04 12:41:50;;;;;;;15.10;10.60;;;5.50;1.00;;;;;;4901728;29;20790;-66
2022/04/04 12:44:23;;;;;;;12.37;9.33;;;5.50;1.00;;;;;;4884172;29;20216;-64
2022/04/04 12:47:02;;;;;;;13.73;9.97;;;5.60;1.00;;;;;;4898926;29;20197;-64
2022/04/04 12:49:30;;;;;;;9.93;8.63;;;5.60;1.00;;;;;;4892344;29;20300;-65
2022/04/04 12:52:17;;;;;;;11.17;9.90;;;5.40;1.00;;;;;;4901071;29;20296;-65
2022/04/04 12:54:44;;;;;;;10.67;9.33;;;5.40;1.00;;;;;;4897228;29;20657;-64
2022/04/04 12:57:11;;;;;;;10.43;8.93;;;5.40;1.00;;;;;;4883177;29;20220;-64
2022/04/04 12:59:56;;;;;;;10.47;9.30;;;5.20;1.00;;;;;;4900321;29;20647;-65
2022/04/04 13:02:32;;;;;;;11.13;9.17;;;5.20;1.00;;;;;;4903835;29;20330;-65
2022/04/04 13:05:13;;;;;;;10.40;9.30;;;5.20;1.00;;;;;;4897111;29;20240;-65
2022/04/04 13:07:51;;;;;;;11.87;10.27;;;5.20;99.90;;;;;;4897307;29;20215;-65
2022/04/04 13:10:21;;;;;;;11.33;10.23;;;5.20;22.80;;;;;;4898963;29;20227;-63
2022/04/04 13:12:48;;;;;;;10.43;9.33;;;5.10;99.90;;;;;;4901662;29;20235;-65
2022/04/04 13:15:35;;;;;;;12.47;10.27;;;5.10;1.00;;;;;;4895157;29;20327;-66
2022/04/04 13:18:02;;;;;;;16.23;10.80;;;5.10;34.70;;;;;;4917208;28;20586;-63